WetterOnline ( https://www.wetteronline.de )

Wetter aktuell Gruenten

Aktuelles Wetter: Oberstdorf (812m)

6-stündlich | Neueste Meldungen
Ortszeit Temperatur Wetter
Sa, 02.03. 19:00 5.0° C wolkig
Sa, 02.03. 13:00 12.2° C wolkig
Sa, 02.03. 7:00 2.4° C Nebel
Sa, 02.03. 1:00 2.8° C Nebel
Fr, 01.03. 19:00 4.8° C leichter Regen
Fr, 01.03. 13:00 5.9° C leichter Regen
Fr, 01.03. 7:00 3.9° C leichter Regen
Fr, 01.03. 1:00 0.0° C wolkenlos
Ortszeit Temperatur Wetter
Sa, 02.03. 19:30 4.4° C wolkig
Sa, 02.03. 19:20 4.4° C wolkig
Sa, 02.03. 19:10 5.6° C bewölkt
Sa, 02.03. 19:00 5.0° C wolkig
Sa, 02.03. 18:50 5.0° C wolkig
Sa, 02.03. 18:40 6.5° C bedeckt
Sa, 02.03. 18:30 6.3° C wolkig
Sa, 02.03. 18:00 7.3° C fast wolkenlos
Sa, 02.03. 17:30 9.1° C leicht bewölkt
Sa, 02.03. 17:00 11.9° C leicht bewölkt
Sa, 02.03. 16:30 12.9° C bewölkt
Ortszeit Relative Feuchte Sichtweite
Sa, 02.03. 19:00 87% >70 km
Sa, 02.03. 13:00 51% >70 km
Sa, 02.03. 7:00 98% 45 km
Sa, 02.03. 1:00 98% 12 km
Fr, 01.03. 19:00 95% 19 km
Fr, 01.03. 13:00 81% 22 km
Fr, 01.03. 7:00 93% 15 km
Fr, 01.03. 1:00 94% 55 km
Ortszeit Relative Feuchte Sichtweite
Sa, 02.03. 19:30 87% >70 km
Sa, 02.03. 19:20 87% -
Sa, 02.03. 19:10 83% -
Sa, 02.03. 19:00 87% >70 km
Sa, 02.03. 18:50 87% -
Sa, 02.03. 18:40 79% -
Sa, 02.03. 18:30 80% >70 km
Sa, 02.03. 18:00 81% 65 km
Sa, 02.03. 17:30 75% >70 km
Sa, 02.03. 17:00 59% >70 km
Sa, 02.03. 16:30 55% >70 km
Ortszeit Niederschlagsmenge Niederschlagsart
Sa, 02.03. 19:00 0.0 l/m2 in 12 Std. -
Sa, 02.03. 13:00 0.0 l/m2 in 6 Std. -
Sa, 02.03. 7:00 0.2 l/m2 in 12 Std. Sprühregen
Sa, 02.03. 1:00 0.2 l/m2 in 6 Std. Regen
Fr, 01.03. 19:00 3 l/m2 in 12 Std. Regen
Fr, 01.03. 13:00 3 l/m2 in 6 Std. Regen, Niederschlag
Fr, 01.03. 7:00 0.1 l/m2 in 12 Std. Regen
Fr, 01.03. 1:00 0.0 l/m2 in 6 Std. -
Ortszeit Niederschlagsmenge Niederschlagsart
Sa, 02.03. 19:30 0.0 l/m2 in 30 Min -
Sa, 02.03. 19:20 keine Meldung -
Sa, 02.03. 19:10 keine Meldung -
Sa, 02.03. 19:00 0.0 l/m2 in 1 Std. -
Sa, 02.03. 18:50 keine Meldung -
Sa, 02.03. 18:40 keine Meldung -
Sa, 02.03. 18:30 0.0 l/m2 in 30 Min -
Sa, 02.03. 18:00 0.0 l/m2 in 1 Std. -
Sa, 02.03. 17:30 0.0 l/m2 in 30 Min -
Sa, 02.03. 17:00 0.0 l/m2 in 1 Std. -
Sa, 02.03. 16:30 0.0 l/m2 in 30 Min -
Ortszeit Stärke Spitze Richtung
km/h Bft. km/h Grad Sektor
Sa, 02.03. 19:00 7 2 18 200° S
Sa, 02.03. 13:00 4 1 11 210° SW
Sa, 02.03. 7:00 7 2 14 200° S
Sa, 02.03. 1:00 4 1 7 210° SW
Fr, 01.03. 19:00 4 1 11 200° S
Fr, 01.03. 13:00 4 1 14 10° N
Fr, 01.03. 7:00 9 2 15 170° S
Fr, 01.03. 1:00 4 1 11 150° SO
Ortszeit Stärke Spitze Richtung
km/h Bft. km/h Grad Sektor
Sa, 02.03. 19:30 6 1 11 190° S
Sa, 02.03. 19:20 6 1 - 190° S
Sa, 02.03. 19:10 7 2 - 170° S
Sa, 02.03. 19:00 7 2 11 200° S
Sa, 02.03. 18:50 7 2 - 200° S
Sa, 02.03. 18:40 7 2 - 160° S
Sa, 02.03. 18:30 7 2 11 160° S
Sa, 02.03. 18:00 9 2 13 160° S
Sa, 02.03. 17:30 7 2 14 200° S
Sa, 02.03. 17:00 9 2 17 10° N
Sa, 02.03. 16:30 11 2 18 330° NW
Ortszeit Untergrenze Bedeckung Gattung
total tief tief mittel hoch
Sa, 02.03. 19:00 7500 m 8/8 0/8 - - -
Sa, 02.03. 13:00 3600 m 7/8 7/8 - - -
Sa, 02.03. 7:00 3600 m 8/8 8/8 - - -
Sa, 02.03. 1:00 <30 m 5/8 0/8 - - -
Fr, 01.03. 19:00 210 m 8/8 8/8 - - -
Fr, 01.03. 13:00 360 m 8/8 8/8 - - -
Fr, 01.03. 7:00 840 m 8/8 8/8 - - -
Fr, 01.03. 1:00 - 0/8 0/8 - - -
Ortszeit Bedeckungsgrad in Achtel und Wolkenuntergrenze
Sa, 02.03. 19:30 6(7500m) 7(8100m)
Sa, 02.03. 19:20 6(7500m) 7(8100m)
Sa, 02.03. 19:10 7
Sa, 02.03. 19:00 7(7500m) 8(8100m) 8(9000m)
Sa, 02.03. 18:50 7(7500m) 8(8100m) 8(9000m)
Sa, 02.03. 18:40 8
Sa, 02.03. 18:30 7(7500m) 8(8400m) 8(9000m)
Sa, 02.03. 18:00 2(8700m)
Sa, 02.03. 17:30 5(7800m)
Sa, 02.03. 17:00 3(3000m)
Sa, 02.03. 16:30 7(3000m) 7(3600m) 7(4200m)
Ortszeit Stationsdruck (hPa) Tendenz (hPa in 3 Std.)
Sa, 02.03. 19:00 910 + 0,4
Sa, 02.03. 13:00 912 - 1,9
Sa, 02.03. 7:00 914 + 0,5
Sa, 02.03. 1:00 913 - 1,1
Fr, 01.03. 19:00 914 0,0
Fr, 01.03. 13:00 915 - 0,5
Fr, 01.03. 7:00 915 + 1,5
Fr, 01.03. 1:00 914 - 1,0
Ortszeit Stationsdruck (hPa) Tendenz (hPa in 3 Std.)
Sa, 02.03. 19:30 910 + 0,6
Sa, 02.03. 19:20 910 keine Meldung
Sa, 02.03. 19:10 910 keine Meldung
Sa, 02.03. 19:00 910 + 0,4
Sa, 02.03. 18:50 910 keine Meldung
Sa, 02.03. 18:40 910 keine Meldung
Sa, 02.03. 18:30 910 - 0,2
Sa, 02.03. 18:00 910 - 0,5
Sa, 02.03. 17:30 910 - 0,6
Sa, 02.03. 17:00 909 - 1,3
Sa, 02.03. 16:30 910 - 1,6
Ortszeit Schneehöhe (cm)
Sa, 02.03. 19:00 0
Sa, 02.03. 13:00 0
Sa, 02.03. 7:00 0
Sa, 02.03. 1:00 0
Fr, 01.03. 19:00 0
Fr, 01.03. 13:00 0
Fr, 01.03. 7:00 0
Fr, 01.03. 1:00 0
Ortszeit Schneehöhe (cm)
Sa, 02.03. 19:30 0
Sa, 02.03. 19:20 0
Sa, 02.03. 19:10 -
Sa, 02.03. 19:00 0
Sa, 02.03. 18:50 0
Sa, 02.03. 18:40 -
Sa, 02.03. 18:30 0
Sa, 02.03. 18:00 0
Sa, 02.03. 17:30 0
Sa, 02.03. 17:00 0
Sa, 02.03. 16:30 0
Link zu dieser Seite / Seite empfehlen

Das Wetter in ...